sensor_id;sensor_type;location;lat;lon;timestamp;temperature;humidity
3067;DHT22;1544;48.834;9.194;2023-12-20T00:01:34;8.60;41.30
3067;DHT22;1544;48.834;9.194;2023-12-20T00:04:10;8.60;41.30
3067;DHT22;1544;48.834;9.194;2023-12-20T00:06:46;8.60;41.40
3067;DHT22;1544;48.834;9.194;2023-12-20T00:09:22;8.60;41.40
3067;DHT22;1544;48.834;9.194;2023-12-20T00:11:58;8.60;41.40
3067;DHT22;1544;48.834;9.194;2023-12-20T00:14:34;8.70;41.60
3067;DHT22;1544;48.834;9.194;2023-12-20T00:17:10;8.70;41.70
3067;DHT22;1544;48.834;9.194;2023-12-20T00:19:45;8.70;41.90
3067;DHT22;1544;48.834;9.194;2023-12-20T00:22:22;8.70;41.90
3067;DHT22;1544;48.834;9.194;2023-12-20T00:24:58;8.70;42.10
3067;DHT22;1544;48.834;9.194;2023-12-20T00:27:34;8.70;42.30
3067;DHT22;1544;48.834;9.194;2023-12-20T00:30:11;8.70;42.40
3067;DHT22;1544;48.834;9.194;2023-12-20T00:32:47;8.70;42.40
3067;DHT22;1544;48.834;9.194;2023-12-20T00:35:23;8.70;42.60
3067;DHT22;1544;48.834;9.194;2023-12-20T00:37:59;8.70;42.70
3067;DHT22;1544;48.834;9.194;2023-12-20T00:40:35;8.80;42.90
3067;DHT22;1544;48.834;9.194;2023-12-20T00:43:11;8.80;43.40
3067;DHT22;1544;48.834;9.194;2023-12-20T00:45:47;8.80;43.20
3067;DHT22;1544;48.834;9.194;2023-12-20T00:48:23;8.80;43.30
3067;DHT22;1544;48.834;9.194;2023-12-20T00:50:59;8.80;43.60
3067;DHT22;1544;48.834;9.194;2023-12-20T00:53:35;8.80;43.80
3067;DHT22;1544;48.834;9.194;2023-12-20T00:56:11;8.70;44.00
3067;DHT22;1544;48.834;9.194;2023-12-20T00:58:47;8.70;44.20
3067;DHT22;1544;48.834;9.194;2023-12-20T01:01:23;8.70;44.50
3067;DHT22;1544;48.834;9.194;2023-12-20T01:03:59;8.70;44.70
3067;DHT22;1544;48.834;9.194;2023-12-20T01:06:36;8.70;45.30
3067;DHT22;1544;48.834;9.194;2023-12-20T01:09:12;8.70;45.90
3067;DHT22;1544;48.834;9.194;2023-12-20T01:11:48;8.60;46.60
3067;DHT22;1544;48.834;9.194;2023-12-20T01:14:24;8.60;47.10
3067;DHT22;1544;48.834;9.194;2023-12-20T01:17:00;8.60;47.60
3067;DHT22;1544;48.834;9.194;2023-12-20T01:19:37;8.50;47.80
3067;DHT22;1544;48.834;9.194;2023-12-20T01:22:13;8.50;48.20
3067;DHT22;1544;48.834;9.194;2023-12-20T01:24:49;8.50;48.50
3067;DHT22;1544;48.834;9.194;2023-12-20T01:27:25;8.50;49.00
3067;DHT22;1544;48.834;9.194;2023-12-20T01:30:01;8.50;49.40
3067;DHT22;1544;48.834;9.194;2023-12-20T01:32:37;8.50;49.80
3067;DHT22;1544;48.834;9.194;2023-12-20T01:35:13;8.50;50.10
3067;DHT22;1544;48.834;9.194;2023-12-20T01:37:49;8.50;50.50
3067;DHT22;1544;48.834;9.194;2023-12-20T01:40:25;8.40;50.90
3067;DHT22;1544;48.834;9.194;2023-12-20T01:43:06;8.40;51.30
3067;DHT22;1544;48.834;9.194;2023-12-20T01:45:44;8.40;51.70
3067;DHT22;1544;48.834;9.194;2023-12-20T01:48:20;8.40;52.20
3067;DHT22;1544;48.834;9.194;2023-12-20T01:50:56;8.40;52.70
3067;DHT22;1544;48.834;9.194;2023-12-20T01:53:32;8.40;53.30
3067;DHT22;1544;48.834;9.194;2023-12-20T01:56:08;8.40;53.80
3067;DHT22;1544;48.834;9.194;2023-12-20T01:58:46;8.30;54.10
3067;DHT22;1544;48.834;9.194;2023-12-20T02:01:23;8.30;54.70
3067;DHT22;1544;48.834;9.194;2023-12-20T02:04:00;8.30;55.00
3067;DHT22;1544;48.834;9.194;2023-12-20T02:06:38;8.30;55.20
3067;DHT22;1544;48.834;9.194;2023-12-20T02:09:16;8.30;55.50
3067;DHT22;1544;48.834;9.194;2023-12-20T02:11:52;8.30;55.80
3067;DHT22;1544;48.834;9.194;2023-12-20T02:14:28;8.30;56.10
3067;DHT22;1544;48.834;9.194;2023-12-20T02:17:04;8.30;56.40
3067;DHT22;1544;48.834;9.194;2023-12-20T02:19:40;8.30;56.70
3067;DHT22;1544;48.834;9.194;2023-12-20T02:22:16;8.30;57.00
3067;DHT22;1544;48.834;9.194;2023-12-20T02:24:52;8.30;57.40
3067;DHT22;1544;48.834;9.194;2023-12-20T02:27:29;8.30;57.60
3067;DHT22;1544;48.834;9.194;2023-12-20T02:30:06;8.30;57.90
3067;DHT22;1544;48.834;9.194;2023-12-20T02:32:42;8.20;58.00
3067;DHT22;1544;48.834;9.194;2023-12-20T02:35:18;8.30;58.30
3067;DHT22;1544;48.834;9.194;2023-12-20T02:37:54;8.30;58.60
3067;DHT22;1544;48.834;9.194;2023-12-20T02:40:30;8.20;58.70
3067;DHT22;1544;48.834;9.194;2023-12-20T02:43:06;8.20;59.00
3067;DHT22;1544;48.834;9.194;2023-12-20T02:45:42;8.20;59.20
3067;DHT22;1544;48.834;9.194;2023-12-20T02:48:18;8.20;59.70
3067;DHT22;1544;48.834;9.194;2023-12-20T02:50:54;8.20;60.10
3067;DHT22;1544;48.834;9.194;2023-12-20T02:53:30;8.10;60.50
3067;DHT22;1544;48.834;9.194;2023-12-20T02:56:06;8.10;60.90
3067;DHT22;1544;48.834;9.194;2023-12-20T02:58:42;8.10;61.10
3067;DHT22;1544;48.834;9.194;2023-12-20T03:01:18;8.20;60.30
3067;DHT22;1544;48.834;9.194;2023-12-20T03:03:54;8.10;59.90
3067;DHT22;1544;48.834;9.194;2023-12-20T03:06:30;8.10;60.20
3067;DHT22;1544;48.834;9.194;2023-12-20T03:09:06;8.00;60.60
3067;DHT22;1544;48.834;9.194;2023-12-20T03:11:43;8.00;61.60
3067;DHT22;1544;48.834;9.194;2023-12-20T03:14:18;8.00;60.30
3067;DHT22;1544;48.834;9.194;2023-12-20T03:16:54;8.00;59.70
3067;DHT22;1544;48.834;9.194;2023-12-20T03:19:32;7.90;60.50
3067;DHT22;1544;48.834;9.194;2023-12-20T03:22:08;7.90;62.60
3067;DHT22;1544;48.834;9.194;2023-12-20T03:24:44;7.60;62.80
3067;DHT22;1544;48.834;9.194;2023-12-20T03:27:20;7.80;64.60
3067;DHT22;1544;48.834;9.194;2023-12-20T03:29:56;7.70;64.00
3067;DHT22;1544;48.834;9.194;2023-12-20T03:32:32;7.60;65.50
3067;DHT22;1544;48.834;9.194;2023-12-20T03:35:08;7.60;66.50
3067;DHT22;1544;48.834;9.194;2023-12-20T03:37:44;7.50;66.50
3067;DHT22;1544;48.834;9.194;2023-12-20T03:40:20;7.50;66.80
3067;DHT22;1544;48.834;9.194;2023-12-20T03:42:58;7.40;67.10
3067;DHT22;1544;48.834;9.194;2023-12-20T03:45:34;7.40;67.40
3067;DHT22;1544;48.834;9.194;2023-12-20T03:48:10;7.50;67.50
3067;DHT22;1544;48.834;9.194;2023-12-20T03:50:46;7.40;68.80
3067;DHT22;1544;48.834;9.194;2023-12-20T03:53:22;7.30;67.60
3067;DHT22;1544;48.834;9.194;2023-12-20T03:55:59;7.30;67.40
3067;DHT22;1544;48.834;9.194;2023-12-20T03:58:35;7.30;67.60
3067;DHT22;1544;48.834;9.194;2023-12-20T04:01:11;7.20;66.90
3067;DHT22;1544;48.834;9.194;2023-12-20T04:03:49;7.20;67.90
3067;DHT22;1544;48.834;9.194;2023-12-20T04:06:25;7.10;69.00
3067;DHT22;1544;48.834;9.194;2023-12-20T04:09:02;7.10;68.90
3067;DHT22;1544;48.834;9.194;2023-12-20T04:11:37;7.00;69.30
3067;DHT22;1544;48.834;9.194;2023-12-20T04:14:13;7.00;71.20
3067;DHT22;1544;48.834;9.194;2023-12-20T04:16:49;6.90;71.40
3067;DHT22;1544;48.834;9.194;2023-12-20T04:19:25;6.90;72.20
3067;DHT22;1544;48.834;9.194;2023-12-20T04:22:01;6.90;72.40
3067;DHT22;1544;48.834;9.194;2023-12-20T04:24:37;6.90;72.50
3067;DHT22;1544;48.834;9.194;2023-12-20T04:27:13;6.90;72.80
3067;DHT22;1544;48.834;9.194;2023-12-20T04:29:49;7.00;72.60
3067;DHT22;1544;48.834;9.194;2023-12-20T04:32:25;7.00;72.60
3067;DHT22;1544;48.834;9.194;2023-12-20T04:35:01;7.00;72.60
3067;DHT22;1544;48.834;9.194;2023-12-20T04:37:37;7.00;72.00
3067;DHT22;1544;48.834;9.194;2023-12-20T04:40:13;7.00;70.80
3067;DHT22;1544;48.834;9.194;2023-12-20T04:42:49;7.00;69.30
3067;DHT22;1544;48.834;9.194;2023-12-20T04:45:25;7.00;68.90
3067;DHT22;1544;48.834;9.194;2023-12-20T04:48:01;7.00;69.00
3067;DHT22;1544;48.834;9.194;2023-12-20T04:50:38;7.00;68.70
3067;DHT22;1544;48.834;9.194;2023-12-20T04:53:14;7.00;68.50
3067;DHT22;1544;48.834;9.194;2023-12-20T04:55:50;7.10;68.60
3067;DHT22;1544;48.834;9.194;2023-12-20T04:58:26;7.10;68.80
3067;DHT22;1544;48.834;9.194;2023-12-20T05:01:04;7.20;67.80
3067;DHT22;1544;48.834;9.194;2023-12-20T05:03:41;7.10;67.40
3067;DHT22;1544;48.834;9.194;2023-12-20T05:06:17;7.20;66.80
3067;DHT22;1544;48.834;9.194;2023-12-20T05:08:53;7.20;66.30
3067;DHT22;1544;48.834;9.194;2023-12-20T05:11:29;7.20;66.10
3067;DHT22;1544;48.834;9.194;2023-12-20T05:14:05;7.10;65.80
3067;DHT22;1544;48.834;9.194;2023-12-20T05:16:41;7.20;66.40
3067;DHT22;1544;48.834;9.194;2023-12-20T05:19:17;7.20;66.10
3067;DHT22;1544;48.834;9.194;2023-12-20T05:21:53;7.20;65.60
3067;DHT22;1544;48.834;9.194;2023-12-20T05:24:29;7.20;65.70
3067;DHT22;1544;48.834;9.194;2023-12-20T05:27:05;7.20;65.90
3067;DHT22;1544;48.834;9.194;2023-12-20T05:29:41;7.20;65.00
3067;DHT22;1544;48.834;9.194;2023-12-20T05:32:17;7.20;65.20
3067;DHT22;1544;48.834;9.194;2023-12-20T05:34:53;7.20;65.50
3067;DHT22;1544;48.834;9.194;2023-12-20T05:37:29;7.20;65.60
3067;DHT22;1544;48.834;9.194;2023-12-20T05:40:05;7.30;65.40
3067;DHT22;1544;48.834;9.194;2023-12-20T05:42:42;7.30;66.00
3067;DHT22;1544;48.834;9.194;2023-12-20T05:45:19;7.30;66.20
3067;DHT22;1544;48.834;9.194;2023-12-20T05:47:55;7.40;65.40
3067;DHT22;1544;48.834;9.194;2023-12-20T05:50:31;7.30;65.80
3067;DHT22;1544;48.834;9.194;2023-12-20T05:53:07;7.30;66.40
3067;DHT22;1544;48.834;9.194;2023-12-20T05:55:43;7.30;67.10
3067;DHT22;1544;48.834;9.194;2023-12-20T05:58:19;7.30;67.60
3067;DHT22;1544;48.834;9.194;2023-12-20T06:00:55;7.30;68.20
3067;DHT22;1544;48.834;9.194;2023-12-20T06:03:31;7.20;68.50
3067;DHT22;1544;48.834;9.194;2023-12-20T06:06:07;7.20;68.90
3067;DHT22;1544;48.834;9.194;2023-12-20T06:08:51;7.20;69.30
3067;DHT22;1544;48.834;9.194;2023-12-20T06:11:27;7.30;69.40
3067;DHT22;1544;48.834;9.194;2023-12-20T06:14:03;7.30;68.90
3067;DHT22;1544;48.834;9.194;2023-12-20T06:16:39;7.40;68.90
3067;DHT22;1544;48.834;9.194;2023-12-20T06:19:15;7.40;69.10
3067;DHT22;1544;48.834;9.194;2023-12-20T06:21:51;7.30;69.10
3067;DHT22;1544;48.834;9.194;2023-12-20T06:24:27;7.40;69.20
3067;DHT22;1544;48.834;9.194;2023-12-20T06:27:04;7.30;69.70
3067;DHT22;1544;48.834;9.194;2023-12-20T06:29:40;7.30;70.40
3067;DHT22;1544;48.834;9.194;2023-12-20T06:32:17;7.30;70.30
3067;DHT22;1544;48.834;9.194;2023-12-20T06:34:53;7.30;71.10
3067;DHT22;1544;48.834;9.194;2023-12-20T06:37:29;7.30;70.90
3067;DHT22;1544;48.834;9.194;2023-12-20T06:40:05;7.40;71.00
3067;DHT22;1544;48.834;9.194;2023-12-20T06:42:46;7.40;71.30
3067;DHT22;1544;48.834;9.194;2023-12-20T06:45:39;7.40;71.30
3067;DHT22;1544;48.834;9.194;2023-12-20T06:48:16;7.40;70.70
3067;DHT22;1544;48.834;9.194;2023-12-20T06:50:54;7.40;71.10
3067;DHT22;1544;48.834;9.194;2023-12-20T06:53:30;7.40;71.30
3067;DHT22;1544;48.834;9.194;2023-12-20T06:56:06;7.50;71.40
3067;DHT22;1544;48.834;9.194;2023-12-20T06:58:43;7.50;71.20
3067;DHT22;1544;48.834;9.194;2023-12-20T07:01:19;7.50;70.60
3067;DHT22;1544;48.834;9.194;2023-12-20T07:03:55;7.50;70.40
3067;DHT22;1544;48.834;9.194;2023-12-20T07:06:31;7.50;70.20
3067;DHT22;1544;48.834;9.194;2023-12-20T07:09:07;7.50;69.10
3067;DHT22;1544;48.834;9.194;2023-12-20T07:11:43;7.50;68.50
3067;DHT22;1544;48.834;9.194;2023-12-20T07:14:19;7.50;68.10
3067;DHT22;1544;48.834;9.194;2023-12-20T07:16:55;7.50;68.10
3067;DHT22;1544;48.834;9.194;2023-12-20T07:19:31;7.50;68.30
3067;DHT22;1544;48.834;9.194;2023-12-20T07:22:08;7.50;69.10
3067;DHT22;1544;48.834;9.194;2023-12-20T07:24:44;7.50;67.90
3067;DHT22;1544;48.834;9.194;2023-12-20T07:27:21;7.50;67.40
3067;DHT22;1544;48.834;9.194;2023-12-20T07:29:57;7.50;68.30
3067;DHT22;1544;48.834;9.194;2023-12-20T07:32:33;7.40;68.40
3067;DHT22;1544;48.834;9.194;2023-12-20T07:35:09;7.50;67.80
3067;DHT22;1544;48.834;9.194;2023-12-20T07:37:45;7.40;68.70
3067;DHT22;1544;48.834;9.194;2023-12-20T07:40:23;7.30;68.20
3067;DHT22;1544;48.834;9.194;2023-12-20T07:42:59;7.30;67.50
3067;DHT22;1544;48.834;9.194;2023-12-20T07:45:35;7.30;67.00
3067;DHT22;1544;48.834;9.194;2023-12-20T07:48:11;7.40;66.30
3067;DHT22;1544;48.834;9.194;2023-12-20T07:50:48;7.40;65.60
3067;DHT22;1544;48.834;9.194;2023-12-20T07:53:24;7.30;64.90
3067;DHT22;1544;48.834;9.194;2023-12-20T07:55:59;7.40;61.30
3067;DHT22;1544;48.834;9.194;2023-12-20T07:58:36;8.00;61.90
3067;DHT22;1544;48.834;9.194;2023-12-20T08:01:26;7.40;59.90
3067;DHT22;1544;48.834;9.194;2023-12-20T08:04:03;7.30;59.50
3067;DHT22;1544;48.834;9.194;2023-12-20T08:06:39;7.30;59.00
3067;DHT22;1544;48.834;9.194;2023-12-20T08:09:15;7.30;57.60
3067;DHT22;1544;48.834;9.194;2023-12-20T08:11:51;7.30;57.30
3067;DHT22;1544;48.834;9.194;2023-12-20T08:14:27;7.20;56.70
3067;DHT22;1544;48.834;9.194;2023-12-20T08:17:03;7.20;56.20
3067;DHT22;1544;48.834;9.194;2023-12-20T08:19:39;7.10;55.10
3067;DHT22;1544;48.834;9.194;2023-12-20T08:22:15;7.10;54.70
3067;DHT22;1544;48.834;9.194;2023-12-20T08:24:51;7.00;55.10
3067;DHT22;1544;48.834;9.194;2023-12-20T08:27:28;7.00;54.90
3067;DHT22;1544;48.834;9.194;2023-12-20T08:30:04;7.00;54.00
3067;DHT22;1544;48.834;9.194;2023-12-20T08:32:40;6.90;54.10
3067;DHT22;1544;48.834;9.194;2023-12-20T08:35:16;6.90;53.40
3067;DHT22;1544;48.834;9.194;2023-12-20T08:37:54;6.90;53.10
3067;DHT22;1544;48.834;9.194;2023-12-20T08:40:31;6.90;52.60
3067;DHT22;1544;48.834;9.194;2023-12-20T08:43:07;6.80;52.80
3067;DHT22;1544;48.834;9.194;2023-12-20T08:45:43;6.80;53.60
3067;DHT22;1544;48.834;9.194;2023-12-20T08:48:19;6.80;53.80
3067;DHT22;1544;48.834;9.194;2023-12-20T08:50:55;6.80;53.80
3067;DHT22;1544;48.834;9.194;2023-12-20T08:53:31;6.80;53.80
3067;DHT22;1544;48.834;9.194;2023-12-20T08:56:07;6.10;53.80
3067;DHT22;1544;48.834;9.194;2023-12-20T08:58:45;6.70;54.70
3067;DHT22;1544;48.834;9.194;2023-12-20T09:01:21;6.80;53.80
3067;DHT22;1544;48.834;9.194;2023-12-20T09:03:57;6.70;53.80
3067;DHT22;1544;48.834;9.194;2023-12-20T09:06:33;6.80;53.70
3067;DHT22;1544;48.834;9.194;2023-12-20T09:09:10;6.80;52.70
3067;DHT22;1544;48.834;9.194;2023-12-20T09:11:49;6.80;52.90
3067;DHT22;1544;48.834;9.194;2023-12-20T09:14:26;6.80;52.30
3067;DHT22;1544;48.834;9.194;2023-12-20T09:17:03;6.80;53.00
3067;DHT22;1544;48.834;9.194;2023-12-20T09:19:39;6.80;53.60
3067;DHT22;1544;48.834;9.194;2023-12-20T09:22:15;6.80;53.10
3067;DHT22;1544;48.834;9.194;2023-12-20T09:24:51;6.90;52.50
3067;DHT22;1544;48.834;9.194;2023-12-20T09:27:27;6.90;51.40
3067;DHT22;1544;48.834;9.194;2023-12-20T09:30:04;6.90;51.20
3067;DHT22;1544;48.834;9.194;2023-12-20T09:32:41;6.90;50.80
3067;DHT22;1544;48.834;9.194;2023-12-20T09:35:17;6.90;50.50
3067;DHT22;1544;48.834;9.194;2023-12-20T09:37:53;7.00;49.60
3067;DHT22;1544;48.834;9.194;2023-12-20T09:40:32;7.00;48.60
3067;DHT22;1544;48.834;9.194;2023-12-20T09:43:14;7.00;48.00
3067;DHT22;1544;48.834;9.194;2023-12-20T09:45:54;7.00;46.30
3067;DHT22;1544;48.834;9.194;2023-12-20T09:48:36;7.10;44.80
3067;DHT22;1544;48.834;9.194;2023-12-20T09:51:13;7.10;45.00
3067;DHT22;1544;48.834;9.194;2023-12-20T09:53:54;7.10;45.20
3067;DHT22;1544;48.834;9.194;2023-12-20T09:56:32;7.10;43.90
3067;DHT22;1544;48.834;9.194;2023-12-20T09:59:08;7.20;43.10
3067;DHT22;1544;48.834;9.194;2023-12-20T10:01:44;7.10;43.30
3067;DHT22;1544;48.834;9.194;2023-12-20T10:04:21;7.20;42.70
3067;DHT22;1544;48.834;9.194;2023-12-20T10:07:05;7.20;41.60
3067;DHT22;1544;48.834;9.194;2023-12-20T10:09:42;7.20;41.00
3067;DHT22;1544;48.834;9.194;2023-12-20T10:12:18;7.30;40.60
3067;DHT22;1544;48.834;9.194;2023-12-20T10:14:54;7.40;40.30
3067;DHT22;1544;48.834;9.194;2023-12-20T10:17:30;7.50;39.80
3067;DHT22;1544;48.834;9.194;2023-12-20T10:20:07;7.50;38.90
3067;DHT22;1544;48.834;9.194;2023-12-20T10:22:46;7.50;39.10
3067;DHT22;1544;48.834;9.194;2023-12-20T10:25:23;7.50;39.00
3067;DHT22;1544;48.834;9.194;2023-12-20T10:28:14;7.50;39.10
3067;DHT22;1544;48.834;9.194;2023-12-20T10:30:55;7.50;38.40
3067;DHT22;1544;48.834;9.194;2023-12-20T10:33:32;7.40;38.90
3067;DHT22;1544;48.834;9.194;2023-12-20T10:36:09;7.50;38.90
3067;DHT22;1544;48.834;9.194;2023-12-20T10:38:46;7.40;38.90
3067;DHT22;1544;48.834;9.194;2023-12-20T10:41:28;7.50;38.40
3067;DHT22;1544;48.834;9.194;2023-12-20T10:44:05;7.40;38.50
3067;DHT22;1544;48.834;9.194;2023-12-20T10:46:41;7.40;38.70
3067;DHT22;1544;48.834;9.194;2023-12-20T10:49:23;7.40;38.60
3067;DHT22;1544;48.834;9.194;2023-12-20T10:52:02;7.50;38.60
3067;DHT22;1544;48.834;9.194;2023-12-20T10:54:40;7.70;37.90
3067;DHT22;1544;48.834;9.194;2023-12-20T10:57:18;8.00;37.00
3067;DHT22;1544;48.834;9.194;2023-12-20T10:59:56;8.30;36.70
3067;DHT22;1544;48.834;9.194;2023-12-20T11:02:39;8.50;36.50
3067;DHT22;1544;48.834;9.194;2023-12-20T11:08:33;9.20;36.20
3067;DHT22;1544;48.834;9.194;2023-12-20T11:11:25;9.60;35.40
3067;DHT22;1544;48.834;9.194;2023-12-20T11:14:06;9.70;34.90
3067;DHT22;1544;48.834;9.194;2023-12-20T11:16:45;9.70;35.10
3067;DHT22;1544;48.834;9.194;2023-12-20T11:19:29;9.60;34.00
3067;DHT22;1544;48.834;9.194;2023-12-20T11:22:06;9.40;33.80
3067;DHT22;1544;48.834;9.194;2023-12-20T11:24:44;9.20;33.80
3067;DHT22;1544;48.834;9.194;2023-12-20T11:27:21;9.00;34.60
3067;DHT22;1544;48.834;9.194;2023-12-20T11:29:59;8.90;34.30
3067;DHT22;1544;48.834;9.194;2023-12-20T11:32:37;8.70;34.40
3067;DHT22;1544;48.834;9.194;2023-12-20T11:37:49;8.60;34.50
3067;DHT22;1544;48.834;9.194;2023-12-20T11:40:26;8.50;35.20
3067;DHT22;1544;48.834;9.194;2023-12-20T11:43:03;8.40;35.20
3067;DHT22;1544;48.834;9.194;2023-12-20T11:45:49;8.40;35.40
3067;DHT22;1544;48.834;9.194;2023-12-20T11:48:26;8.40;35.40
3067;DHT22;1544;48.834;9.194;2023-12-20T11:51:12;8.30;35.20
3067;DHT22;1544;48.834;9.194;2023-12-20T11:53:52;8.30;35.00
3067;DHT22;1544;48.834;9.194;2023-12-20T11:56:29;8.30;35.70
3067;DHT22;1544;48.834;9.194;2023-12-20T11:59:05;8.20;34.80
3067;DHT22;1544;48.834;9.194;2023-12-20T12:01:58;8.20;34.50
3067;DHT22;1544;48.834;9.194;2023-12-20T12:04:37;8.10;34.80
3067;DHT22;1544;48.834;9.194;2023-12-20T12:07:13;8.10;35.00
3067;DHT22;1544;48.834;9.194;2023-12-20T12:09:49;8.10;35.00
3067;DHT22;1544;48.834;9.194;2023-12-20T12:12:25;8.10;34.90
3067;DHT22;1544;48.834;9.194;2023-12-20T12:15:03;8.20;35.00
3067;DHT22;1544;48.834;9.194;2023-12-20T12:17:39;8.20;35.30
3067;DHT22;1544;48.834;9.194;2023-12-20T12:20:20;8.30;35.40
3067;DHT22;1544;48.834;9.194;2023-12-20T12:23:00;8.40;34.90
3067;DHT22;1544;48.834;9.194;2023-12-20T12:25:36;8.40;34.50
3067;DHT22;1544;48.834;9.194;2023-12-20T12:28:18;8.50;35.00
3067;DHT22;1544;48.834;9.194;2023-12-20T12:31:00;8.50;34.80
3067;DHT22;1544;48.834;9.194;2023-12-20T12:33:36;8.40;35.00
3067;DHT22;1544;48.834;9.194;2023-12-20T12:36:13;8.50;34.70
3067;DHT22;1544;48.834;9.194;2023-12-20T12:38:52;8.50;34.80
3067;DHT22;1544;48.834;9.194;2023-12-20T12:41:29;8.60;34.50
3067;DHT22;1544;48.834;9.194;2023-12-20T12:44:05;8.70;34.60
3067;DHT22;1544;48.834;9.194;2023-12-20T12:46:52;9.00;34.60
3067;DHT22;1544;48.834;9.194;2023-12-20T12:49:29;9.20;34.50
3067;DHT22;1544;48.834;9.194;2023-12-20T12:52:05;9.20;33.50
3067;DHT22;1544;48.834;9.194;2023-12-20T12:54:42;9.30;34.30
3067;DHT22;1544;48.834;9.194;2023-12-20T12:57:21;9.20;34.10
3067;DHT22;1544;48.834;9.194;2023-12-20T12:59:57;9.10;33.80
3067;DHT22;1544;48.834;9.194;2023-12-20T13:02:34;9.00;33.60
3067;DHT22;1544;48.834;9.194;2023-12-20T13:05:11;8.90;33.90
3067;DHT22;1544;48.834;9.194;2023-12-20T13:07:47;8.90;34.20
3067;DHT22;1544;48.834;9.194;2023-12-20T13:10:24;8.80;34.20
3067;DHT22;1544;48.834;9.194;2023-12-20T13:13:00;8.80;34.00
3067;DHT22;1544;48.834;9.194;2023-12-20T13:15:36;8.70;34.00
3067;DHT22;1544;48.834;9.194;2023-12-20T13:18:12;8.60;34.30
3067;DHT22;1544;48.834;9.194;2023-12-20T13:20:48;8.60;34.10
3067;DHT22;1544;48.834;9.194;2023-12-20T13:23:25;8.60;33.80
3067;DHT22;1544;48.834;9.194;2023-12-20T13:26:02;8.70;33.70
3067;DHT22;1544;48.834;9.194;2023-12-20T13:28:38;8.80;33.60
3067;DHT22;1544;48.834;9.194;2023-12-20T13:31:15;8.90;33.80
3067;DHT22;1544;48.834;9.194;2023-12-20T13:33:51;9.00;33.50
3067;DHT22;1544;48.834;9.194;2023-12-20T13:36:28;8.90;33.30
3067;DHT22;1544;48.834;9.194;2023-12-20T13:39:04;8.80;33.80
3067;DHT22;1544;48.834;9.194;2023-12-20T13:41:40;8.80;33.50
3067;DHT22;1544;48.834;9.194;2023-12-20T13:44:16;8.80;33.80
3067;DHT22;1544;48.834;9.194;2023-12-20T13:46:52;8.80;33.20
3067;DHT22;1544;48.834;9.194;2023-12-20T13:49:29;8.70;33.40
3067;DHT22;1544;48.834;9.194;2023-12-20T13:52:05;9.10;34.20
3067;DHT22;1544;48.834;9.194;2023-12-20T13:54:42;8.60;34.20
3067;DHT22;1544;48.834;9.194;2023-12-20T13:57:18;8.60;34.40
3067;DHT22;1544;48.834;9.194;2023-12-20T14:00:13;8.50;34.10
3067;DHT22;1544;48.834;9.194;2023-12-20T14:02:50;8.40;34.70
3067;DHT22;1544;48.834;9.194;2023-12-20T14:05:26;8.30;35.10
3067;DHT22;1544;48.834;9.194;2023-12-20T14:08:04;8.30;35.10
3067;DHT22;1544;48.834;9.194;2023-12-20T14:10:41;8.30;35.40
3067;DHT22;1544;48.834;9.194;2023-12-20T14:13:17;8.30;35.00
3067;DHT22;1544;48.834;9.194;2023-12-20T14:15:53;8.20;35.20
3067;DHT22;1544;48.834;9.194;2023-12-20T14:18:30;8.20;35.50
3067;DHT22;1544;48.834;9.194;2023-12-20T14:21:06;8.10;35.80
3067;DHT22;1544;48.834;9.194;2023-12-20T14:23:42;8.00;36.60
3067;DHT22;1544;48.834;9.194;2023-12-20T14:26:21;7.90;36.70
3067;DHT22;1544;48.834;9.194;2023-12-20T14:28:57;7.80;36.90
3067;DHT22;1544;48.834;9.194;2023-12-20T14:31:34;7.70;37.30
3067;DHT22;1544;48.834;9.194;2023-12-20T14:34:10;7.70;37.80
3067;DHT22;1544;48.834;9.194;2023-12-20T14:36:46;7.60;38.20
3067;DHT22;1544;48.834;9.194;2023-12-20T14:39:22;7.60;38.30
3067;DHT22;1544;48.834;9.194;2023-12-20T14:41:58;7.60;37.90
3067;DHT22;1544;48.834;9.194;2023-12-20T14:44:34;7.60;38.10
3067;DHT22;1544;48.834;9.194;2023-12-20T14:47:10;7.50;38.50
3067;DHT22;1544;48.834;9.194;2023-12-20T14:49:46;7.50;38.20
3067;DHT22;1544;48.834;9.194;2023-12-20T14:52:23;7.50;38.00
3067;DHT22;1544;48.834;9.194;2023-12-20T14:55:00;7.50;38.60
3067;DHT22;1544;48.834;9.194;2023-12-20T14:57:38;7.30;39.10
3067;DHT22;1544;48.834;9.194;2023-12-20T15:00:14;7.30;39.40
3067;DHT22;1544;48.834;9.194;2023-12-20T15:02:52;7.30;39.70
3067;DHT22;1544;48.834;9.194;2023-12-20T15:05:31;7.20;40.10
3067;DHT22;1544;48.834;9.194;2023-12-20T15:08:07;7.20;41.10
3067;DHT22;1544;48.834;9.194;2023-12-20T15:10:44;7.20;41.70
3067;DHT22;1544;48.834;9.194;2023-12-20T15:13:20;7.20;42.20
3067;DHT22;1544;48.834;9.194;2023-12-20T15:15:56;7.10;42.20
3067;DHT22;1544;48.834;9.194;2023-12-20T15:18:32;7.10;42.40
3067;DHT22;1544;48.834;9.194;2023-12-20T15:21:08;7.10;42.70
3067;DHT22;1544;48.834;9.194;2023-12-20T15:23:44;7.10;42.20
3067;DHT22;1544;48.834;9.194;2023-12-20T15:26:28;7.10;42.50
3067;DHT22;1544;48.834;9.194;2023-12-20T15:29:04;7.10;42.40
3067;DHT22;1544;48.834;9.194;2023-12-20T15:31:45;7.10;42.70
3067;DHT22;1544;48.834;9.194;2023-12-20T15:34:22;7.10;42.30
3067;DHT22;1544;48.834;9.194;2023-12-20T15:36:58;7.10;41.80
3067;DHT22;1544;48.834;9.194;2023-12-20T15:39:35;7.10;41.90
3067;DHT22;1544;48.834;9.194;2023-12-20T15:42:10;7.10;41.30
3067;DHT22;1544;48.834;9.194;2023-12-20T15:44:46;7.20;41.30
3067;DHT22;1544;48.834;9.194;2023-12-20T15:47:22;7.10;41.20
3067;DHT22;1544;48.834;9.194;2023-12-20T15:49:59;7.20;41.60
3067;DHT22;1544;48.834;9.194;2023-12-20T15:52:35;7.20;41.00
3067;DHT22;1544;48.834;9.194;2023-12-20T15:55:12;7.30;41.00
3067;DHT22;1544;48.834;9.194;2023-12-20T15:57:49;7.40;41.00
3067;DHT22;1544;48.834;9.194;2023-12-20T16:00:30;7.40;40.70
3067;DHT22;1544;48.834;9.194;2023-12-20T16:03:06;7.40;40.80
3067;DHT22;1544;48.834;9.194;2023-12-20T16:05:58;7.40;40.90
3067;DHT22;1544;48.834;9.194;2023-12-20T16:08:35;7.50;40.70
3067;DHT22;1544;48.834;9.194;2023-12-20T16:11:11;7.50;40.80
3067;DHT22;1544;48.834;9.194;2023-12-20T16:13:47;7.50;40.90
3067;DHT22;1544;48.834;9.194;2023-12-20T16:16:23;7.50;41.20
3067;DHT22;1544;48.834;9.194;2023-12-20T16:18:59;7.50;41.20
3067;DHT22;1544;48.834;9.194;2023-12-20T16:21:35;7.40;41.30
3067;DHT22;1544;48.834;9.194;2023-12-20T16:24:12;7.40;41.40
3067;DHT22;1544;48.834;9.194;2023-12-20T16:26:48;7.50;41.50
3067;DHT22;1544;48.834;9.194;2023-12-20T16:29:25;7.50;41.20
3067;DHT22;1544;48.834;9.194;2023-12-20T16:32:01;7.50;41.20
3067;DHT22;1544;48.834;9.194;2023-12-20T16:34:38;7.40;41.30
3067;DHT22;1544;48.834;9.194;2023-12-20T16:37:14;7.40;41.40
3067;DHT22;1544;48.834;9.194;2023-12-20T16:39:50;7.30;41.60
3067;DHT22;1544;48.834;9.194;2023-12-20T16:42:26;7.30;41.70
3067;DHT22;1544;48.834;9.194;2023-12-20T16:45:02;7.30;41.80
3067;DHT22;1544;48.834;9.194;2023-12-20T16:47:39;7.20;41.60
3067;DHT22;1544;48.834;9.194;2023-12-20T16:50:16;7.20;41.70
3067;DHT22;1544;48.834;9.194;2023-12-20T16:52:52;7.20;41.50
3067;DHT22;1544;48.834;9.194;2023-12-20T16:55:28;7.20;41.40
3067;DHT22;1544;48.834;9.194;2023-12-20T16:58:05;7.20;41.40
3067;DHT22;1544;48.834;9.194;2023-12-20T17:00:41;7.10;41.60
3067;DHT22;1544;48.834;9.194;2023-12-20T17:03:17;7.10;41.70
3067;DHT22;1544;48.834;9.194;2023-12-20T17:05:55;7.10;42.00
3067;DHT22;1544;48.834;9.194;2023-12-20T17:08:31;7.10;41.60
3067;DHT22;1544;48.834;9.194;2023-12-20T17:11:08;7.10;41.60
3067;DHT22;1544;48.834;9.194;2023-12-20T17:13:44;7.10;41.70
3067;DHT22;1544;48.834;9.194;2023-12-20T17:16:20;7.00;41.60
3067;DHT22;1544;48.834;9.194;2023-12-20T17:18:56;7.00;41.60
3067;DHT22;1544;48.834;9.194;2023-12-20T17:21:33;7.00;41.60
3067;DHT22;1544;48.834;9.194;2023-12-20T17:24:09;7.00;41.90
3067;DHT22;1544;48.834;9.194;2023-12-20T17:26:46;7.00;41.70